Time,TemperatureF,DewpointF,PressureIn,WindDirection,WindDirectionDegrees,WindSpeedMPH,WindSpeedGustMPH,Humidity,HourlyPrecipIn,Conditions,Clouds,dailyrainin,SoftwareType,DateUTC
2013-04-22 00:04:00,55.9,44.0,29.20,North,0,0.0,0.0,64,0.00,,---,0.00,VWS V14.00,2013-04-22 04:04:00,
2013-04-22 00:07:00,55.9,44.0,29.20,NE,45,1.1,2.9,64,0.00,,---,0.00,VWS V14.00,2013-04-22 04:07:00,
2013-04-22 00:10:00,55.8,43.8,29.20,NE,45,0.0,2.9,64,0.00,,---,0.00,VWS V14.00,2013-04-22 04:10:00,
2013-04-22 00:16:00,55.8,43.8,29.17,ENE,68,1.6,2.9,64,0.00,,---,0.00,VWS V14.00,2013-04-22 04:16:00,
2013-04-22 00:22:00,55.6,43.6,29.17,NNE,22,0.0,2.9,64,0.00,,---,0.00,VWS V14.00,2013-04-22 04:22:00,
2013-04-22 00:25:00,55.8,43.8,29.17,ENE,68,1.3,2.9,64,0.00,,---,0.00,VWS V14.00,2013-04-22 04:25:00,
2013-04-22 00:31:00,55.6,43.6,29.20,North,0,0.0,2.9,64,0.00,,---,0.00,VWS V14.00,2013-04-22 04:31:00,
2013-04-22 00:37:00,55.4,43.4,29.20,NE,45,0.0,2.9,64,0.00,,---,0.00,VWS V14.00,2013-04-22 04:37:00,
2013-04-22 00:43:00,55.4,43.4,29.20,NNW,338,0.0,2.9,64,0.00,,---,0.00,VWS V14.00,2013-04-22 04:43:00,
2013-04-22 00:49:00,55.0,43.1,29.17,East,90,1.3,2.9,64,0.00,,---,0.00,VWS V14.00,2013-04-22 04:49:00,
2013-04-22 00:55:00,55.0,43.5,29.17,NNW,338,0.0,2.9,65,0.00,,---,0.00,VWS V14.00,2013-04-22 04:55:00,
2013-04-22 01:01:00,54.7,43.2,29.17,ENE,68,2.5,2.5,65,0.00,,---,0.00,VWS V14.00,2013-04-22 05:01:00,
2013-04-22 01:07:00,54.7,43.2,29.17,ENE,68,0.9,2.5,65,0.00,,---,0.00,VWS V14.00,2013-04-22 05:07:00,
2013-04-22 01:13:00,54.5,43.0,29.17,East,90,0.0,2.5,65,0.00,,---,0.00,VWS V14.00,2013-04-22 05:13:00,
2013-04-22 01:19:00,54.5,43.0,29.17,NW,315,1.6,2.5,65,0.00,,---,0.00,VWS V14.00,2013-04-22 05:19:00,
2013-04-22 01:25:00,54.5,42.6,29.17,NNE,22,0.0,2.5,64,0.00,,---,0.00,VWS V14.00,2013-04-22 05:25:00,
2013-04-22 01:31:00,54.3,42.8,29.17,NNW,338,0.9,2.5,65,0.00,,---,0.00,VWS V14.00,2013-04-22 05:31:00,
2013-04-22 01:37:00,54.1,42.7,29.17,North,0,0.0,2.5,65,0.00,,---,0.00,VWS V14.00,2013-04-22 05:37:00,
2013-04-22 01:43:00,54.1,42.7,29.17,NNW,338,0.0,2.5,65,0.00,,---,0.00,VWS V14.00,2013-04-22 05:43:00,
2013-04-22 01:49:00,54.0,42.1,29.17,NNW,338,0.0,2.5,64,0.00,,---,0.00,VWS V14.00,2013-04-22 05:49:00,
2013-04-22 01:55:00,53.8,42.3,29.17,NW,315,1.6,2.5,65,0.00,,---,0.00,VWS V14.00,2013-04-22 05:55:00,
2013-04-22 02:01:00,53.8,42.3,29.17,NW,315,0.0,1.6,65,0.00,,---,0.00,VWS V14.00,2013-04-22 06:01:00,
2013-04-22 02:07:00,53.6,42.1,29.17,ENE,68,0.0,1.6,65,0.00,,---,0.00,VWS V14.00,2013-04-22 06:07:00,
2013-04-22 02:13:00,53.6,42.1,29.17,NE,45,1.1,1.6,65,0.00,,---,0.00,VWS V14.00,2013-04-22 06:13:00,
2013-04-22 02:19:00,53.6,42.1,29.17,NE,45,0.0,2.9,65,0.00,,---,0.00,VWS V14.00,2013-04-22 06:19:00,
2013-04-22 02:25:00,53.6,42.1,29.17,ENE,68,1.1,2.9,65,0.00,,---,0.00,VWS V14.00,2013-04-22 06:25:00,
2013-04-22 02:31:00,53.6,42.1,29.17,ENE,68,0.9,2.9,65,0.00,,---,0.00,VWS V14.00,2013-04-22 06:31:00,
2013-04-22 02:37:00,53.4,42.0,29.17,NE,45,0.0,2.9,65,0.00,,---,0.00,VWS V14.00,2013-04-22 06:37:00,
2013-04-22 02:43:00,53.4,42.0,29.17,NE,45,1.1,2.9,65,0.00,,---,0.00,VWS V14.00,2013-04-22 06:43:00,
2013-04-22 02:49:00,53.2,41.8,29.17,ENE,68,2.5,3.4,65,0.00,,---,0.00,VWS V14.00,2013-04-22 06:49:00,
2013-04-22 02:55:00,53.4,42.0,29.17,NNE,22,2.0,3.4,65,0.00,,---,0.00,VWS V14.00,2013-04-22 06:55:00,
2013-04-22 03:01:00,53.6,42.1,29.17,NE,45,1.3,1.3,65,0.00,,---,0.00,VWS V14.00,2013-04-22 07:01:00,
2013-04-22 03:07:00,53.4,42.0,29.17,ENE,68,1.3,3.8,65,0.00,,---,0.00,VWS V14.00,2013-04-22 07:07:00,
2013-04-22 03:13:00,53.4,42.0,29.17,NE,45,0.0,3.8,65,0.00,,---,0.00,VWS V14.00,2013-04-22 07:13:00,
2013-04-22 03:19:00,53.2,41.8,29.17,ENE,68,0.0,3.8,65,0.00,,---,0.00,VWS V14.00,2013-04-22 07:19:00,
2013-04-22 03:25:00,53.1,41.6,29.17,ENE,68,1.3,3.8,65,0.00,,---,0.00,VWS V14.00,2013-04-22 07:25:00,
2013-04-22 03:31:00,53.1,41.6,29.17,NE,45,0.9,3.8,65,0.00,,---,0.00,VWS V14.00,2013-04-22 07:31:00,
2013-04-22 03:37:00,53.1,41.6,29.17,NE,45,1.3,3.8,65,0.00,,---,0.00,VWS V14.00,2013-04-22 07:37:00,
2013-04-22 03:43:00,53.1,42.0,29.17,ENE,68,2.2,3.8,66,0.00,,---,0.00,VWS V14.00,2013-04-22 07:43:00,
2013-04-22 03:49:00,52.9,41.8,29.17,ENE,68,2.5,3.8,66,0.00,,---,0.00,VWS V14.00,2013-04-22 07:49:00,
2013-04-22 03:55:00,52.9,41.5,29.17,NE,45,1.1,4.0,65,0.00,,---,0.00,VWS V14.00,2013-04-22 07:55:00,
2013-04-22 04:01:00,53.1,41.6,29.17,ENE,68,1.6,2.5,65,0.00,,---,0.00,VWS V14.00,2013-04-22 08:01:00,
2013-04-22 04:07:00,52.9,41.5,29.17,NNW,338,0.0,2.5,65,0.00,,---,0.00,VWS V14.00,2013-04-22 08:07:00,
2013-04-22 04:13:00,52.5,41.5,29.17,NE,45,0.0,2.5,66,0.00,,---,0.00,VWS V14.00,2013-04-22 08:13:00,
2013-04-22 04:20:00,52.3,41.3,29.17,NE,45,0.0,2.5,66,0.00,,---,0.00,VWS V14.00,2013-04-22 08:20:00,
2013-04-22 04:26:00,52.3,41.3,29.17,ENE,68,0.0,2.5,66,0.00,,---,0.00,VWS V14.00,2013-04-22 08:26:00,
2013-04-22 04:32:00,52.2,41.2,29.17,NE,45,0.0,2.5,66,0.00,,---,0.00,VWS V14.00,2013-04-22 08:32:00,
2013-04-22 04:38:00,52.2,41.2,29.17,NE,45,0.0,2.5,66,0.00,,---,0.00,VWS V14.00,2013-04-22 08:38:00,
2013-04-22 04:44:00,51.8,41.2,29.17,NE,45,0.0,2.5,67,0.00,,---,0.00,VWS V14.00,2013-04-22 08:44:00,
2013-04-22 04:50:00,51.6,41.4,29.17,NNE,22,0.0,2.5,68,0.00,,---,0.00,VWS V14.00,2013-04-22 08:50:00,
2013-04-22 04:56:00,51.6,41.4,29.17,NE,45,0.0,2.5,68,0.00,,---,0.00,VWS V14.00,2013-04-22 08:56:00,
2013-04-22 05:02:00,51.3,41.5,29.17,NE,45,0.0,0.0,69,0.00,,---,0.00,VWS V14.00,2013-04-22 09:02:00,
2013-04-22 05:08:00,50.9,41.1,29.17,North,0,0.0,0.0,69,0.00,,---,0.00,VWS V14.00,2013-04-22 09:08:00,
2013-04-22 05:14:00,51.1,41.7,29.17,North,0,0.0,0.0,70,0.00,,---,0.00,VWS V14.00,2013-04-22 09:14:00,
2013-04-22 05:20:00,50.5,41.5,29.17,NE,45,0.0,0.0,71,0.00,,---,0.00,VWS V14.00,2013-04-22 09:20:00,
2013-04-22 05:26:00,50.4,41.3,29.17,NE,45,0.0,0.0,71,0.00,,---,0.00,VWS V14.00,2013-04-22 09:26:00,
2013-04-22 05:32:00,50.4,41.3,29.17,NE,45,0.0,0.0,71,0.00,,---,0.00,VWS V14.00,2013-04-22 09:32:00,
2013-04-22 05:38:00,50.2,41.2,29.17,North,0,0.0,0.0,71,0.00,,---,0.00,VWS V14.00,2013-04-22 09:38:00,
2013-04-22 05:44:00,50.4,41.3,29.17,North,0,0.0,0.0,71,0.00,,---,0.00,VWS V14.00,2013-04-22 09:44:00,
2013-04-22 05:50:00,49.6,41.0,29.17,North,0,0.0,0.0,72,0.00,,---,0.00,VWS V14.00,2013-04-22 09:50:00,
2013-04-22 05:56:00,49.3,40.7,29.17,North,0,0.0,0.0,72,0.00,,---,0.00,VWS V14.00,2013-04-22 09:56:00,
2013-04-22 06:02:00,49.3,40.7,29.20,North,0,0.0,0.0,72,0.00,,---,0.00,VWS V14.00,2013-04-22 10:02:00,
2013-04-22 06:08:00,48.9,40.3,29.20,North,0,0.0,0.0,72,0.00,,---,0.00,VWS V14.00,2013-04-22 10:08:00,
2013-04-22 06:14:00,48.9,40.3,29.20,North,0,0.0,0.0,72,0.00,,---,0.00,VWS V14.00,2013-04-22 10:14:00,
2013-04-22 06:20:00,48.9,40.3,29.20,North,0,0.0,0.0,72,0.00,,---,0.00,VWS V14.00,2013-04-22 10:20:00,
2013-04-22 06:26:00,49.1,40.5,29.20,North,0,0.0,0.0,72,0.00,,---,0.00,VWS V14.00,2013-04-22 10:26:00,
2013-04-22 06:32:00,48.7,40.1,29.20,North,0,0.0,0.0,72,0.00,,---,0.00,VWS V14.00,2013-04-22 10:32:00,
2013-04-22 06:38:00,48.6,40.3,29.20,North,0,0.0,0.0,73,0.00,,---,0.00,VWS V14.00,2013-04-22 10:38:00,
2013-04-22 06:44:00,48.4,40.1,29.20,North,0,0.0,0.0,73,0.00,,---,0.00,VWS V14.00,2013-04-22 10:44:00,
2013-04-22 06:50:00,48.4,40.1,29.20,North,0,0.0,0.0,73,0.00,,---,0.00,VWS V14.00,2013-04-22 10:50:00,
2013-04-22 06:56:00,48.2,40.0,29.20,North,0,0.0,0.0,73,0.00,,---,0.00,VWS V14.00,2013-04-22 10:56:00,
2013-04-22 07:02:00,48.4,40.1,29.20,NE,45,0.0,0.0,73,0.00,,---,0.00,VWS V14.00,2013-04-22 11:02:00,
2013-04-22 07:08:00,48.0,39.8,29.20,NE,45,0.0,0.0,73,0.00,,---,0.00,VWS V14.00,2013-04-22 11:08:00,
2013-04-22 07:14:00,48.0,39.8,29.20,NE,45,0.0,0.0,73,0.00,,---,0.00,VWS V14.00,2013-04-22 11:14:00,
2013-04-22 07:20:00,48.0,39.8,29.20,ENE,68,0.0,0.0,73,0.00,,---,0.00,VWS V14.00,2013-04-22 11:20:00,
2013-04-22 07:26:00,47.8,39.6,29.20,ENE,68,0.0,0.0,73,0.00,,---,0.00,VWS V14.00,2013-04-22 11:26:00,
2013-04-22 07:32:00,47.8,39.6,29.20,ENE,68,0.0,0.0,73,0.00,,---,0.00,VWS V14.00,2013-04-22 11:32:00,
2013-04-22 07:38:00,48.0,40.1,29.20,NE,45,0.0,0.0,74,0.00,,---,0.00,VWS V14.00,2013-04-22 11:38:00,
2013-04-22 07:44:00,48.4,40.1,29.20,NE,45,0.0,0.0,73,0.00,,---,0.00,VWS V14.00,2013-04-22 11:44:00,
2013-04-22 07:50:00,48.6,40.7,29.23,NE,45,0.0,0.0,74,0.00,,---,0.00,VWS V14.00,2013-04-22 11:50:00,
2013-04-22 07:56:00,48.9,41.0,29.23,ENE,68,0.0,0.0,74,0.00,,---,0.00,VWS V14.00,2013-04-22 11:56:00,
2013-04-22 08:02:00,50.0,42.0,29.20,WNW,292,1.6,1.6,74,0.00,,---,0.00,VWS V14.00,2013-04-22 12:02:00,
2013-04-22 08:08:00,50.7,42.4,29.20,ENE,68,1.3,2.0,73,0.00,,---,0.00,VWS V14.00,2013-04-22 12:08:00,
2013-04-22 08:14:00,52.0,43.2,29.20,East,90,1.6,2.9,72,0.00,,---,0.00,VWS V14.00,2013-04-22 12:14:00,
2013-04-22 08:20:00,53.1,43.9,29.23,ENE,68,1.1,2.9,71,0.00,,---,0.00,VWS V14.00,2013-04-22 12:20:00,
2013-04-22 08:26:00,54.0,44.8,29.23,ESE,112,4.0,4.0,71,0.00,,---,0.00,VWS V14.00,2013-04-22 12:26:00,
2013-04-22 08:32:00,55.2,45.6,29.23,East,90,4.9,4.9,70,0.00,,---,0.00,VWS V14.00,2013-04-22 12:32:00,
2013-04-22 08:38:00,55.6,44.4,29.23,ENE,68,2.0,4.9,66,0.00,,---,0.00,VWS V14.00,2013-04-22 12:38:00,
2013-04-22 08:44:00,56.5,44.9,29.23,East,90,3.6,4.9,65,0.00,,---,0.00,VWS V14.00,2013-04-22 12:44:00,
2013-04-22 08:50:00,56.8,45.2,29.20,ENE,68,1.6,4.9,65,0.00,,---,0.00,VWS V14.00,2013-04-22 12:50:00,
2013-04-22 08:56:00,57.6,45.5,29.20,ENE,68,2.0,4.9,64,0.00,,---,0.00,VWS V14.00,2013-04-22 12:56:00,
2013-04-22 09:02:00,57.9,45.8,29.20,East,90,4.3,4.3,64,0.00,,---,0.00,VWS V14.00,2013-04-22 13:02:00,
2013-04-22 09:08:00,57.9,45.4,29.20,ENE,68,2.9,4.9,63,0.00,,---,0.00,VWS V14.00,2013-04-22 13:08:00,
2013-04-22 09:14:00,58.5,45.9,29.20,ENE,68,3.6,4.9,63,0.00,,---,0.00,VWS V14.00,2013-04-22 13:14:00,
2013-04-22 09:20:00,58.8,46.3,29.20,ENE,68,4.3,4.9,63,0.00,,---,0.00,VWS V14.00,2013-04-22 13:20:00,
2013-04-22 09:26:00,59.0,46.0,29.20,NNE,22,3.4,6.0,62,0.00,,---,0.00,VWS V14.00,2013-04-22 13:26:00,
2013-04-22 09:32:00,58.6,45.2,29.20,ESE,112,2.7,6.0,61,0.00,,---,0.00,VWS V14.00,2013-04-22 13:32:00,
2013-04-22 09:38:00,58.8,45.8,29.20,ENE,68,2.0,6.0,62,0.00,,---,0.00,VWS V14.00,2013-04-22 13:38:00,
2013-04-22 09:45:00,59.2,45.8,29.20,ENE,68,5.6,6.0,61,0.00,,---,0.00,VWS V14.00,2013-04-22 13:45:00,
2013-04-22 09:51:00,59.0,45.6,29.20,East,90,3.8,6.0,61,0.00,,---,0.00,VWS V14.00,2013-04-22 13:51:00,
2013-04-22 09:57:00,59.2,45.8,29.20,East,90,3.4,6.0,61,0.00,,---,0.00,VWS V14.00,2013-04-22 13:57:00,
2013-04-22 10:03:00,59.2,45.3,29.20,ESE,112,3.4,3.8,60,0.00,,---,0.00,VWS V14.00,2013-04-22 14:03:00,
2013-04-22 10:09:00,59.2,45.3,29.20,NNW,338,2.5,4.9,60,0.00,,---,0.00,VWS V14.00,2013-04-22 14:09:00,
2013-04-22 10:15:00,59.4,45.5,29.20,WNW,292,2.2,4.9,60,0.00,,---,0.00,VWS V14.00,2013-04-22 14:15:00,
2013-04-22 10:21:00,59.7,45.8,29.20,ENE,68,2.9,4.9,60,0.00,,---,0.00,VWS V14.00,2013-04-22 14:21:00,
2013-04-22 10:27:00,59.7,45.8,29.20,NNE,22,2.7,4.9,60,0.00,,---,0.00,VWS V14.00,2013-04-22 14:27:00,
2013-04-22 10:33:00,59.9,46.0,29.20,SE,135,3.1,6.5,60,0.00,,---,0.00,VWS V14.00,2013-04-22 14:33:00,
2013-04-22 10:39:00,59.7,45.8,29.20,SSE,158,2.7,6.5,60,0.00,,---,0.00,VWS V14.00,2013-04-22 14:39:00,
2013-04-22 10:45:00,59.5,45.7,29.17,East,90,3.4,6.5,60,0.00,,---,0.00,VWS V14.00,2013-04-22 14:45:00,
2013-04-22 10:51:00,59.7,45.8,29.17,ESE,112,4.0,6.7,60,0.00,,---,0.00,VWS V14.00,2013-04-22 14:51:00,
2013-04-22 10:57:00,59.5,45.7,29.17,SE,135,4.7,6.7,60,0.00,,---,0.00,VWS V14.00,2013-04-22 14:57:00,
2013-04-22 11:03:00,59.5,45.7,29.17,ENE,68,4.0,4.0,60,0.00,,---,0.00,VWS V14.00,2013-04-22 15:03:00,
2013-04-22 11:09:00,59.9,46.0,29.17,SSE,158,2.0,7.6,60,0.00,,---,0.00,VWS V14.00,2013-04-22 15:09:00,
2013-04-22 11:15:00,59.5,45.7,29.17,ENE,68,2.7,7.6,60,0.00,,---,0.00,VWS V14.00,2013-04-22 15:15:00,
2013-04-22 11:21:00,60.1,46.2,29.17,East,90,3.6,7.6,60,0.00,,---,0.00,VWS V14.00,2013-04-22 15:21:00,
2013-04-22 11:27:00,60.3,46.3,29.17,ENE,68,4.3,7.6,60,0.00,,---,0.00,VWS V14.00,2013-04-22 15:27:00,
2013-04-22 11:33:00,60.4,46.5,29.17,NE,45,4.3,7.6,60,0.00,,---,0.00,VWS V14.00,2013-04-22 15:33:00,
2013-04-22 11:39:00,60.6,46.7,29.17,ESE,112,5.4,7.6,60,0.00,,---,0.00,VWS V14.00,2013-04-22 15:39:00,
2013-04-22 11:45:00,61.0,47.0,29.17,NE,45,2.7,7.6,60,0.00,,---,0.00,VWS V14.00,2013-04-22 15:45:00,
2013-04-22 11:51:00,61.2,47.2,29.17,East,90,4.7,7.6,60,0.00,,---,0.00,VWS V14.00,2013-04-22 15:51:00,
2013-04-22 11:57:00,61.0,46.6,29.17,NE,45,2.7,7.6,59,0.00,,---,0.00,VWS V14.00,2013-04-22 15:57:00,
2013-04-22 12:03:00,61.7,47.7,29.17,WNW,292,1.3,3.4,60,0.00,,---,0.00,VWS V14.00,2013-04-22 16:03:00,
2013-04-22 12:09:00,61.9,47.9,29.17,ENE,68,2.9,4.9,60,0.00,,---,0.00,VWS V14.00,2013-04-22 16:09:00,
2013-04-22 12:15:00,62.4,47.9,29.14,East,90,2.0,4.9,59,0.00,,---,0.00,VWS V14.00,2013-04-22 16:15:00,
2013-04-22 12:21:00,62.4,47.9,29.14,NW,315,2.5,6.0,59,0.00,,---,0.00,VWS V14.00,2013-04-22 16:21:00,
2013-04-22 12:27:00,62.1,47.6,29.14,ENE,68,4.9,7.6,59,0.00,,---,0.00,VWS V14.00,2013-04-22 16:27:00,
2013-04-22 12:33:00,62.2,47.8,29.14,East,90,3.8,7.6,59,0.00,,---,0.00,VWS V14.00,2013-04-22 16:33:00,
2013-04-22 12:39:00,62.6,48.1,29.14,NE,45,2.5,7.6,59,0.00,,---,0.00,VWS V14.00,2013-04-22 16:39:00,
2013-04-22 12:45:00,63.0,48.4,29.14,NE,45,1.6,7.6,59,0.00,,---,0.00,VWS V14.00,2013-04-22 16:45:00,
2013-04-22 12:51:00,63.0,48.4,29.14,ENE,68,1.6,7.6,59,0.00,,---,0.00,VWS V14.00,2013-04-22 16:51:00,
2013-04-22 12:57:00,63.1,48.6,29.14,SSE,158,6.3,7.6,59,0.00,,---,0.00,VWS V14.00,2013-04-22 16:57:00,
2013-04-22 13:03:00,63.3,48.8,29.14,ENE,68,2.5,4.0,59,0.00,,---,0.00,VWS V14.00,2013-04-22 17:03:00,
2013-04-22 13:09:00,63.5,48.9,29.14,ENE,68,3.1,4.0,59,0.00,,---,0.00,VWS V14.00,2013-04-22 17:09:00,
2013-04-22 13:15:00,63.9,49.3,29.12,NE,45,2.2,4.0,59,0.00,,---,0.00,VWS V14.00,2013-04-22 17:15:00,
2013-04-22 13:21:00,64.4,49.3,29.12,North,0,2.0,4.0,58,0.00,,---,0.00,VWS V14.00,2013-04-22 17:21:00,
2013-04-22 13:27:00,64.4,49.3,29.12,East,90,1.3,4.0,58,0.00,,---,0.00,VWS V14.00,2013-04-22 17:27:00,
2013-04-22 13:33:00,64.6,49.5,29.12,ENE,68,4.3,4.3,58,0.00,,---,0.00,VWS V14.00,2013-04-22 17:33:00,
2013-04-22 13:39:00,64.6,49.5,29.12,ESE,112,3.6,4.3,58,0.00,,---,0.00,VWS V14.00,2013-04-22 17:39:00,
2013-04-22 13:45:00,64.4,49.3,29.09,SE,135,2.5,4.3,58,0.00,,---,0.00,VWS V14.00,2013-04-22 17:45:00,
2013-04-22 13:51:00,64.8,49.7,29.09,East,90,3.6,4.3,58,0.00,,---,0.00,VWS V14.00,2013-04-22 17:51:00,
2013-04-22 13:57:00,64.8,49.7,29.09,ESE,112,1.6,4.7,58,0.00,,---,0.00,VWS V14.00,2013-04-22 17:57:00,
2013-04-22 14:03:00,65.1,50.0,29.09,East,90,2.9,3.4,58,0.00,,---,0.00,VWS V14.00,2013-04-22 18:03:00,
2013-04-22 14:09:00,65.1,50.0,29.09,SE,135,4.3,4.7,58,0.00,,---,0.00,VWS V14.00,2013-04-22 18:09:00,
2013-04-22 14:15:00,65.1,50.0,29.09,East,90,2.9,5.8,58,0.00,,---,0.00,VWS V14.00,2013-04-22 18:15:00,
2013-04-22 14:21:00,65.1,50.0,29.09,South,180,8.7,8.7,58,0.00,,---,0.00,VWS V14.00,2013-04-22 18:21:00,
2013-04-22 14:27:00,65.3,50.2,29.09,ESE,112,4.3,10.1,58,0.00,,---,0.00,VWS V14.00,2013-04-22 18:27:00,
2013-04-22 14:33:00,65.3,50.2,29.09,SE,135,5.6,10.1,58,0.00,,---,0.00,VWS V14.00,2013-04-22 18:33:00,
2013-04-22 14:39:00,65.5,50.3,29.09,SSW,202,3.6,10.1,58,0.00,,---,0.00,VWS V14.00,2013-04-22 18:39:00,
2013-04-22 14:45:00,65.7,50.5,29.09,NE,45,2.2,10.1,58,0.00,,---,0.00,VWS V14.00,2013-04-22 18:45:00,
2013-04-22 14:51:00,65.8,50.7,29.09,East,90,2.9,10.1,58,0.00,,---,0.00,VWS V14.00,2013-04-22 18:51:00,
2013-04-22 14:57:00,65.8,50.7,29.09,NNE,22,4.3,10.1,58,0.00,,---,0.00,VWS V14.00,2013-04-22 18:57:00,
2013-04-22 15:03:00,65.8,50.7,29.09,East,90,4.0,4.0,58,0.00,,---,0.00,VWS V14.00,2013-04-22 19:03:00,
2013-04-22 15:09:00,65.7,50.5,29.09,ENE,68,1.3,4.9,58,0.00,,---,0.00,VWS V14.00,2013-04-22 19:09:00,
2013-04-22 15:16:00,66.0,50.8,29.09,ESE,112,2.0,4.9,58,0.00,,---,0.00,VWS V14.00,2013-04-22 19:16:00,
2013-04-22 15:22:00,66.0,50.8,29.09,NNE,22,4.7,8.5,58,0.00,,---,0.00,VWS V14.00,2013-04-22 19:22:00,
2013-04-22 15:28:00,66.0,49.4,29.09,SSE,158,1.1,8.5,55,0.00,,---,0.00,VWS V14.00,2013-04-22 19:28:00,
2013-04-22 15:34:00,65.7,49.1,29.09,East,90,2.5,9.8,55,0.00,,---,0.00,VWS V14.00,2013-04-22 19:34:00,
2013-04-22 15:40:00,66.2,50.5,29.09,NE,45,1.3,9.8,57,0.00,,---,0.00,VWS V14.00,2013-04-22 19:40:00,
2013-04-22 15:46:00,66.2,50.5,29.06,ENE,68,3.6,9.8,57,0.00,,---,0.00,VWS V14.00,2013-04-22 19:46:00,
2013-04-22 15:52:00,66.2,50.5,29.06,East,90,5.4,9.8,57,0.00,,---,0.00,VWS V14.00,2013-04-22 19:52:00,
2013-04-22 15:58:00,66.2,49.6,29.06,SSE,158,2.7,9.8,55,0.00,,---,0.00,VWS V14.00,2013-04-22 19:58:00,
2013-04-22 16:04:00,66.4,50.7,29.06,NNE,22,2.0,3.4,57,0.00,,---,0.00,VWS V14.00,2013-04-22 20:04:00,
2013-04-22 16:10:00,66.6,49.9,29.06,East,90,2.9,5.4,55,0.00,,---,0.00,VWS V14.00,2013-04-22 20:10:00,
2013-04-22 16:16:00,66.6,49.9,29.06,ESE,112,2.0,5.6,55,0.00,,---,0.00,VWS V14.00,2013-04-22 20:16:00,
2013-04-22 16:22:00,66.4,49.7,29.06,East,90,4.0,5.6,55,0.00,,---,0.00,VWS V14.00,2013-04-22 20:22:00,
2013-04-22 16:28:00,66.6,49.9,29.06,East,90,3.8,5.6,55,0.00,,---,0.00,VWS V14.00,2013-04-22 20:28:00,
2013-04-22 16:34:00,66.6,49.9,29.06,East,90,1.3,5.6,55,0.00,,---,0.00,VWS V14.00,2013-04-22 20:34:00,
2013-04-22 16:40:00,66.7,50.1,29.06,SE,135,3.6,5.6,55,0.00,,---,0.00,VWS V14.00,2013-04-22 20:40:00,
2013-04-22 16:46:00,66.7,50.1,29.06,ESE,112,1.6,6.3,55,0.00,,---,0.00,VWS V14.00,2013-04-22 20:46:00,
2013-04-22 16:52:00,66.7,50.1,29.06,East,90,3.6,6.3,55,0.00,,---,0.00,VWS V14.00,2013-04-22 20:52:00,
2013-04-22 16:58:00,66.7,50.1,29.06,NE,45,1.1,6.3,55,0.00,,---,0.00,VWS V14.00,2013-04-22 20:58:00,
2013-04-22 17:04:00,66.6,49.9,29.03,SE,135,3.4,6.3,55,0.00,,---,0.00,VWS V14.00,2013-04-22 21:04:00,
2013-04-22 17:10:00,66.6,49.9,29.03,East,90,4.0,6.3,55,0.00,,---,0.00,VWS V14.00,2013-04-22 21:10:00,
2013-04-22 17:16:00,66.7,50.1,29.03,ENE,68,2.7,6.3,55,0.00,,---,0.00,VWS V14.00,2013-04-22 21:16:00,
2013-04-22 17:22:00,66.6,49.9,29.03,East,90,2.9,6.3,55,0.00,,---,0.00,VWS V14.00,2013-04-22 21:22:00,
2013-04-22 17:28:00,66.6,49.9,29.03,East,90,2.9,6.3,55,0.00,,---,0.00,VWS V14.00,2013-04-22 21:28:00,
2013-04-22 17:34:00,66.4,49.7,29.03,East,90,3.8,8.1,55,0.00,,---,0.00,VWS V14.00,2013-04-22 21:34:00,
2013-04-22 17:40:00,66.2,49.6,29.03,SSE,158,3.4,8.1,55,0.00,,---,0.00,VWS V14.00,2013-04-22 21:40:00,
2013-04-22 17:46:00,66.2,49.6,29.03,East,90,4.0,8.1,55,0.00,,---,0.00,VWS V14.00,2013-04-22 21:46:00,
2013-04-22 17:52:00,66.2,49.6,29.03,ENE,68,2.0,8.1,55,0.00,,---,0.00,VWS V14.00,2013-04-22 21:52:00,
2013-04-22 17:58:00,66.2,49.6,29.03,SE,135,3.8,8.1,55,0.00,,---,0.00,VWS V14.00,2013-04-22 21:58:00,
2013-04-22 18:04:00,66.0,49.4,29.03,SSE,158,4.3,6.0,55,0.00,,---,0.00,VWS V14.00,2013-04-22 22:04:00,
2013-04-22 18:10:00,66.0,49.4,29.03,SE,135,2.2,6.0,55,0.00,,---,0.00,VWS V14.00,2013-04-22 22:10:00,
2013-04-22 18:16:00,66.0,49.4,29.03,SSE,158,3.6,6.0,55,0.00,,---,0.00,VWS V14.00,2013-04-22 22:16:00,
2013-04-22 18:22:00,65.8,49.2,29.03,South,180,3.8,6.0,55,0.00,,---,0.00,VWS V14.00,2013-04-22 22:22:00,
2013-04-22 18:28:00,65.8,49.2,29.03,SE,135,3.6,6.0,55,0.00,,---,0.00,VWS V14.00,2013-04-22 22:28:00,
2013-04-22 18:34:00,65.7,49.1,29.03,East,90,0.0,6.0,55,0.00,,---,0.00,VWS V14.00,2013-04-22 22:34:00,
2013-04-22 18:40:00,65.7,49.1,29.03,ENE,68,2.9,6.0,55,0.00,,---,0.00,VWS V14.00,2013-04-22 22:40:00,
2013-04-22 18:46:00,65.5,48.9,29.03,WNW,292,1.6,6.0,55,0.00,,---,0.00,VWS V14.00,2013-04-22 22:46:00,
2013-04-22 18:52:00,65.3,48.7,29.03,ESE,112,0.9,6.0,55,0.00,,---,0.00,VWS V14.00,2013-04-22 22:52:00,
2013-04-22 18:58:00,65.1,48.6,29.03,West,270,1.3,6.0,55,0.00,,---,0.00,VWS V14.00,2013-04-22 22:58:00,
2013-04-22 19:04:00,64.9,48.4,29.03,East,90,2.0,2.5,55,0.00,,---,0.00,VWS V14.00,2013-04-22 23:04:00,
2013-04-22 19:10:00,64.8,48.2,29.03,SSE,158,1.1,2.5,55,0.00,,---,0.00,VWS V14.00,2013-04-22 23:10:00,
2013-04-22 19:16:00,64.6,48.1,29.03,ENE,68,0.0,3.4,55,0.00,,---,0.00,VWS V14.00,2013-04-22 23:16:00,
2013-04-22 19:22:00,64.4,47.9,29.03,East,90,0.0,3.4,55,0.00,,---,0.00,VWS V14.00,2013-04-22 23:22:00,
2013-04-22 19:28:00,64.2,48.2,29.03,ENE,68,0.0,3.4,56,0.00,,---,0.00,VWS V14.00,2013-04-22 23:28:00,
2013-04-22 19:34:00,64.0,48.0,29.03,South,180,3.8,3.8,56,0.00,,---,0.00,VWS V14.00,2013-04-22 23:34:00,
2013-04-22 19:40:00,63.9,47.9,29.03,NNE,22,0.0,3.8,56,0.00,,---,0.00,VWS V14.00,2013-04-22 23:40:00,
2013-04-22 19:46:00,63.9,47.9,29.03,ENE,68,0.9,3.8,56,0.00,,---,0.00,VWS V14.00,2013-04-22 23:46:00,
2013-04-22 19:52:00,63.7,47.7,29.03,North,0,0.0,3.8,56,0.00,,---,0.00,VWS V14.00,2013-04-22 23:52:00,
2013-04-22 19:58:00,63.5,47.5,29.03,North,0,0.0,3.8,56,0.00,,---,0.00,VWS V14.00,2013-04-22 23:58:00,
2013-04-22 20:04:00,63.0,48.0,29.03,North,0,0.0,0.0,58,0.00,,---,0.00,VWS V14.00,2013-04-23 00:04:00,
2013-04-22 20:10:00,62.2,47.8,29.03,North,0,0.0,0.0,59,0.00,,---,0.00,VWS V14.00,2013-04-23 00:10:00,
2013-04-22 20:16:00,62.1,47.6,29.06,NE,45,0.0,0.0,59,0.00,,---,0.00,VWS V14.00,2013-04-23 00:16:00,
2013-04-22 20:22:00,61.3,46.9,29.06,NNE,22,0.0,0.0,59,0.00,,---,0.00,VWS V14.00,2013-04-23 00:22:00,
2013-04-22 20:29:00,60.8,46.8,29.06,NNE,22,0.0,0.0,60,0.00,,---,0.00,VWS V14.00,2013-04-23 00:29:00,
2013-04-22 20:35:00,60.1,46.2,29.06,NNE,22,0.0,0.0,60,0.00,,---,0.00,VWS V14.00,2013-04-23 00:35:00,
2013-04-22 20:41:00,59.7,45.8,29.06,NE,45,0.0,0.0,60,0.00,,---,0.00,VWS V14.00,2013-04-23 00:41:00,
2013-04-22 20:47:00,59.7,46.3,29.06,North,0,0.0,0.0,61,0.00,,---,0.00,VWS V14.00,2013-04-23 00:47:00,
2013-04-22 20:53:00,59.4,45.9,29.06,North,0,0.0,0.0,61,0.00,,---,0.00,VWS V14.00,2013-04-23 00:53:00,
2013-04-22 20:59:00,58.8,45.8,29.06,North,0,0.0,0.0,62,0.00,,---,0.00,VWS V14.00,2013-04-23 00:59:00,
2013-04-22 21:05:00,58.3,45.3,29.06,North,0,0.0,0.0,62,0.00,,---,0.00,VWS V14.00,2013-04-23 01:05:00,
2013-04-22 21:11:00,57.7,44.8,29.06,NNE,22,0.0,0.0,62,0.00,,---,0.00,VWS V14.00,2013-04-23 01:11:00,
2013-04-22 21:17:00,57.4,44.9,29.06,NNE,22,0.0,0.0,63,0.00,,---,0.00,VWS V14.00,2013-04-23 01:17:00,
2013-04-22 21:23:00,57.0,45.0,29.06,NNE,22,0.0,0.0,64,0.00,,---,0.00,VWS V14.00,2013-04-23 01:23:00,
2013-04-22 21:29:00,56.5,44.5,29.06,NNE,22,0.0,0.0,64,0.00,,---,0.00,VWS V14.00,2013-04-23 01:29:00,
2013-04-22 21:35:00,56.1,44.1,29.06,NNE,22,0.0,0.0,64,0.00,,---,0.00,VWS V14.00,2013-04-23 01:35:00,
2013-04-22 21:41:00,55.9,44.0,29.06,NNE,22,0.0,0.0,64,0.00,,---,0.00,VWS V14.00,2013-04-23 01:41:00,
2013-04-22 21:47:00,55.4,43.4,29.06,NNE,22,0.0,0.0,64,0.00,,---,0.00,VWS V14.00,2013-04-23 01:47:00,
2013-04-22 21:53:00,54.9,43.3,29.06,NNE,22,0.0,0.0,65,0.00,,---,0.00,VWS V14.00,2013-04-23 01:53:00,
2013-04-22 21:59:00,54.5,43.4,29.06,NNE,22,0.0,0.0,66,0.00,,---,0.00,VWS V14.00,2013-04-23 01:59:00,
2013-04-22 22:05:00,54.1,43.0,29.09,NNE,22,0.0,0.0,66,0.00,,---,0.00,VWS V14.00,2013-04-23 02:05:00,
2013-04-22 22:11:00,53.8,43.1,29.09,NNE,22,0.0,0.0,67,0.00,,---,0.00,VWS V14.00,2013-04-23 02:11:00,
2013-04-22 22:17:00,53.4,43.1,29.09,NNE,22,0.0,0.0,68,0.00,,---,0.00,VWS V14.00,2013-04-23 02:17:00,
2013-04-22 22:23:00,53.2,43.0,29.09,NNE,22,0.0,0.0,68,0.00,,---,0.00,VWS V14.00,2013-04-23 02:23:00,
2013-04-22 22:29:00,52.9,42.2,29.09,NNE,22,0.0,0.0,67,0.00,,---,0.00,VWS V14.00,2013-04-23 02:29:00,
2013-04-22 22:35:00,52.7,42.5,29.09,NNE,22,0.0,0.0,68,0.00,,---,0.00,VWS V14.00,2013-04-23 02:35:00,
2013-04-22 22:41:00,52.7,42.5,29.09,NNE,22,0.0,0.0,68,0.00,,---,0.00,VWS V14.00,2013-04-23 02:41:00,
2013-04-22 22:47:00,52.2,42.3,29.09,NNE,22,0.0,0.0,69,0.00,,---,0.00,VWS V14.00,2013-04-23 02:47:00,
2013-04-22 22:53:00,51.8,42.0,29.09,NNE,22,0.0,0.0,69,0.00,,---,0.00,VWS V14.00,2013-04-23 02:53:00,
2013-04-22 22:59:00,51.6,42.2,29.09,NNE,22,0.0,0.0,70,0.00,,---,0.00,VWS V14.00,2013-04-23 02:59:00,
2013-04-22 23:05:00,51.6,42.5,29.09,NNE,22,0.0,0.0,71,0.00,,---,0.00,VWS V14.00,2013-04-23 03:05:00,
2013-04-22 23:11:00,51.4,42.4,29.09,NNE,22,0.0,0.0,71,0.00,,---,0.00,VWS V14.00,2013-04-23 03:11:00,
2013-04-22 23:17:00,51.1,42.0,29.09,NNE,22,0.0,0.0,71,0.00,,---,0.00,VWS V14.00,2013-04-23 03:17:00,
2013-04-22 23:23:00,51.1,42.0,29.09,NNE,22,0.0,0.0,71,0.00,,---,0.00,VWS V14.00,2013-04-23 03:23:00,
2013-04-22 23:29:00,50.9,41.8,29.09,NNE,22,0.0,0.0,71,0.00,,---,0.00,VWS V14.00,2013-04-23 03:29:00,
2013-04-22 23:35:00,50.5,41.5,29.09,NNE,22,0.0,0.0,71,0.00,,---,0.00,VWS V14.00,2013-04-23 03:35:00,
2013-04-22 23:41:00,50.4,41.3,29.09,NNE,22,0.0,0.0,71,0.00,,---,0.00,VWS V14.00,2013-04-23 03:41:00,
2013-04-22 23:47:00,50.2,41.2,29.09,NNE,22,0.0,0.0,71,0.00,,---,0.00,VWS V14.00,2013-04-23 03:47:00,
2013-04-22 23:53:00,50.0,41.0,29.09,NNE,22,0.0,0.0,71,0.00,,---,0.00,VWS V14.00,2013-04-23 03:53:00,
2013-04-22 23:59:00,49.8,41.2,29.09,NNE,22,0.0,0.0,72,0.00,,---,0.00,VWS V14.00,2013-04-23 03:59:00,